F/V Izaskun Berria — ECBA — position and weather

sailwx.info

Track history (hours):
 
Tides and Currents Weather Stations Pressure Air Temp Water Temp Dewpoint Dewpoint Depression Visibility Wind Speed Wind Dir Waves Ship Positions

F/V Izaskun Berria

Last reported at 2014-Nov-27 01:31 UTC. Time now 2014-Dec-19 13:00 UTC.
Position N 44°38' W 001°40'.
Warning: this ship's position is 22 days out of date.

Length 36 m.

Type: Fishing. MMSI: 224086790.

Date/timePositionNaut miles runAvg speedWind from/ knotsBaromVisibWave heightAir tempDewpointWater temp
2014-Nov-27 01:31N 44°38' W 001°40'0 0.2
2014-Nov-26 22:16N 44°39' W 001°40'  
2014-Nov-21 03:25N 43°49' W 001°58'910.4
2014-Nov-21 02:31N 43°58' W 001°54'1010.3
2014-Nov-21 01:33N 44°07' W 001°49'1010.5
2014-Nov-21 00:33N 44°17' W 001°43'1010.3
2014-Nov-20 23:34N 44°27' W 001°38'1 0.8
2014-Nov-20 22:33N 44°27' W 001°37'3 3.0
2014-Nov-20 21:32N 44°24' W 001°37'4 3.6
2014-Nov-20 20:28N 44°28' W 001°38'3 1.6
2014-Nov-20 18:25N 44°25' W 001°36'2 1.7
2014-Nov-20 17:32N 44°24' W 001°37'38 2.9
2014-Nov-20 04:31N 43°48' W 001°56'10 9.8
2014-Nov-20 03:27N 43°57' W 001°50'9 9.8
2014-Nov-20 02:33N 44°06' W 001°45'1310.0
2014-Nov-20 01:17N 44°17' W 001°38'7 7.2
2014-Nov-20 00:20N 44°24' W 001°35'0 0.4
2014-Nov-19 23:33N 44°24' W 001°35'4 3.4
2014-Nov-19 22:25N 44°20' W 001°38'1 0.9
2014-Nov-19 21:20N 44°20' W 001°37'0 0.2
2014-Nov-19 20:33N 44°19' W 001°37'6 6.1
2014-Nov-19 19:30N 44°13' W 001°37'0 0.3
2014-Nov-19 18:33N 44°13' W 001°37'  
Track history (hours):
 
Tides and Currents Weather Stations Pressure Air Temp Water Temp Dewpoint Dewpoint Depression Visibility Wind Speed Wind Dir Waves Ship Positions

F/V Izaskun Berria

Last reported at 2014-Nov-27 01:31 UTC. Time now 2014-Dec-19 13:00 UTC.
Position N 44°38' W 001°40'.
Warning: this ship's position is 22 days out of date.

Length 36 m.

Type: Fishing. MMSI: 224086790.

Date/timePositionNaut miles runAvg speedWind from/ knotsBaromVisibWave heightAir tempDewpointWater temp
2014-Nov-27 01:31N 44°38' W 001°40'0 0.2
2014-Nov-26 22:16N 44°39' W 001°40'  
2014-Nov-21 03:25N 43°49' W 001°58'910.4
2014-Nov-21 02:31N 43°58' W 001°54'1010.3
2014-Nov-21 01:33N 44°07' W 001°49'1010.5
2014-Nov-21 00:33N 44°17' W 001°43'1010.3
2014-Nov-20 23:34N 44°27' W 001°38'1 0.8
2014-Nov-20 22:33N 44°27' W 001°37'3 3.0
2014-Nov-20 21:32N 44°24' W 001°37'4 3.6
2014-Nov-20 20:28N 44°28' W 001°38'3 1.6
2014-Nov-20 18:25N 44°25' W 001°36'2 1.7
2014-Nov-20 17:32N 44°24' W 001°37'38 2.9
2014-Nov-20 04:31N 43°48' W 001°56'10 9.8
2014-Nov-20 03:27N 43°57' W 001°50'9 9.8
2014-Nov-20 02:33N 44°06' W 001°45'1310.0
2014-Nov-20 01:17N 44°17' W 001°38'7 7.2
2014-Nov-20 00:20N 44°24' W 001°35'0 0.4
2014-Nov-19 23:33N 44°24' W 001°35'4 3.4
2014-Nov-19 22:25N 44°20' W 001°38'1 0.9
2014-Nov-19 21:20N 44°20' W 001°37'0 0.2
2014-Nov-19 20:33N 44°19' W 001°37'6 6.1
2014-Nov-19 19:30N 44°13' W 001°37'0 0.3
2014-Nov-19 18:33N 44°13' W 001°37'  

Dump ship's entire track history